createdAt,value
2018-07-30T00:00:30.641Z,75.95
2018-07-30T00:01:31.228Z,75.76
2018-07-30T00:02:31.793Z,75.57
2018-07-30T00:03:32.341Z,75.09
2018-07-30T00:04:32.900Z,74.51
2018-07-30T00:05:33.459Z,73.83
2018-07-30T00:06:34.005Z,73.54
2018-07-30T00:07:34.562Z,73.06
2018-07-30T00:08:35.111Z,73.06
2018-07-30T00:09:35.672Z,73.44
2018-07-30T00:10:36.230Z,73.54
2018-07-30T00:11:36.786Z,73.54
2018-07-30T00:12:37.342Z,73.15
2018-07-30T00:13:37.902Z,73.73
2018-07-30T00:14:38.459Z,74.31
2018-07-30T00:15:39.013Z,74.31
2018-07-30T00:16:39.564Z,75.27
2018-07-30T00:17:40.114Z,75.37
2018-07-30T00:18:40.669Z,75.09
2018-07-30T00:19:41.228Z,75.43
2018-07-30T00:20:41.785Z,75.72
2018-07-30T00:21:42.343Z,76.20
2018-07-30T00:22:42.899Z,76.78
2018-07-30T00:23:43.459Z,77.07
2018-07-30T00:24:44.010Z,77.23
2018-07-30T00:25:44.567Z,77.13
2018-07-30T00:26:45.121Z,77.33
2018-07-30T00:27:45.679Z,77.33
2018-07-30T00:28:46.246Z,77.23
2018-07-30T00:29:46.797Z,77.61
2018-07-30T00:30:47.352Z,77.51
2018-07-30T00:31:47.909Z,77.13
2018-07-30T00:32:48.465Z,76.84
2018-07-30T00:33:49.021Z,76.84
2018-07-30T00:34:49.578Z,76.55
2018-07-30T00:35:50.128Z,76.75
2018-07-30T00:36:50.682Z,76.36
2018-07-30T00:37:51.232Z,76.59
2018-07-30T00:38:51.782Z,76.84
2018-07-30T00:39:52.342Z,76.55
2018-07-30T00:40:52.905Z,76.75
2018-07-30T00:41:53.461Z,76.45
2018-07-30T00:42:54.017Z,76.20
2018-07-30T00:43:54.578Z,75.97
2018-07-30T00:44:55.131Z,76.17
2018-07-30T00:45:55.688Z,75.97
2018-07-30T00:46:56.242Z,75.92
2018-07-30T00:47:56.798Z,76.45
2018-07-30T00:48:57.357Z,76.45
2018-07-30T00:49:57.915Z,77.03
2018-07-30T00:50:58.473Z,77.51
2018-07-30T00:51:59.031Z,76.45
2018-07-30T00:52:59.577Z,76.26
2018-07-30T00:54:00.132Z,76.84
2018-07-30T00:55:00.745Z,76.75
2018-07-30T00:56:01.240Z,76.93
2018-07-30T00:57:01.798Z,76.55
2018-07-30T00:58:02.351Z,77.23
2018-07-30T00:59:02.899Z,77.61
2018-07-30T01:00:03.446Z,78.09
2018-07-30T01:01:04.005Z,78.06
2018-07-30T01:02:04.558Z,78.48
2018-07-30T01:03:05.113Z,78.58
2018-07-30T01:04:05.670Z,78.29
2018-07-30T01:05:06.227Z,77.81
2018-07-30T01:06:06.784Z,78.19
2018-07-30T01:07:07.341Z,78.54
2018-07-30T01:08:07.895Z,78.58
2018-07-30T01:09:08.451Z,78.63
2018-07-30T01:10:09.007Z,78.44
2018-07-30T01:11:09.569Z,77.76
2018-07-30T01:12:10.122Z,78.06
2018-07-30T01:13:10.675Z,78.34
2018-07-30T01:14:11.229Z,78.54
2018-07-30T01:15:11.780Z,78.63
2018-07-30T01:16:12.336Z,78.44
2018-07-30T01:17:12.891Z,78.44
2018-07-30T01:18:13.447Z,78.44
2018-07-30T01:19:14.004Z,78.44
2018-07-30T01:20:14.558Z,78.34
2018-07-30T01:21:15.119Z,78.54
2018-07-30T01:22:15.667Z,78.54
2018-07-30T01:23:16.225Z,77.86
2018-07-30T01:24:16.781Z,78.44
2018-07-30T01:25:17.335Z,79.31
2018-07-30T01:26:17.895Z,79.89
2018-07-30T01:27:18.450Z,79.89
2018-07-30T01:28:19.004Z,80.27
2018-07-30T01:29:19.558Z,80.46
2018-07-30T01:30:20.110Z,80.66
2018-07-30T01:31:20.666Z,79.98
2018-07-30T01:32:21.224Z,79.89
2018-07-30T01:33:21.781Z,80.04
2018-07-30T01:34:22.336Z,80.04
2018-07-30T01:35:22.895Z,80.14
2018-07-30T01:36:23.449Z,80.71
2018-07-30T01:37:24.003Z,81.01
2018-07-30T01:38:24.559Z,80.91
2018-07-30T01:39:25.106Z,80.43
2018-07-30T01:40:25.665Z,80.43
2018-07-30T01:41:26.216Z,80.14
2018-07-30T01:42:26.772Z,80.43
2018-07-30T01:43:27.327Z,80.71
2018-07-30T01:44:27.885Z,80.23
2018-07-30T01:45:28.433Z,80.33
2018-07-30T01:46:28.993Z,79.66
2018-07-30T01:47:29.548Z,79.75
2018-07-30T01:48:30.102Z,79.94
2018-07-30T01:49:30.655Z,80.43
2018-07-30T01:50:31.212Z,80.04
2018-07-30T01:51:31.769Z,80.04
2018-07-30T01:52:32.318Z,80.33
2018-07-30T01:53:32.877Z,80.33
2018-07-30T01:54:33.433Z,81.29
2018-07-30T01:55:34.047Z,81.58
2018-07-30T01:56:34.535Z,82.35
2018-07-30T01:57:35.090Z,82.35
2018-07-30T01:58:35.638Z,82.06
2018-07-30T01:59:36.196Z,82.06
2018-07-30T02:00:36.743Z,82.35
2018-07-30T02:01:37.302Z,82.26
2018-07-30T02:02:37.860Z,82.89
2018-07-30T02:03:38.415Z,82.79
2018-07-30T02:04:38.973Z,82.45
2018-07-30T02:05:39.531Z,81.77
2018-07-30T02:06:40.084Z,81.48
2018-07-30T02:07:40.635Z,81.68
2018-07-30T02:08:41.189Z,81.93
2018-07-30T02:09:41.745Z,82.06
2018-07-30T02:10:42.304Z,82.50
2018-07-30T02:11:42.862Z,83.03
2018-07-30T02:12:43.414Z,82.79
2018-07-30T02:13:43.973Z,83.18
2018-07-30T02:14:44.527Z,82.79
2018-07-30T02:15:45.083Z,82.70
2018-07-30T02:16:45.638Z,82.89
2018-07-30T02:17:46.193Z,82.60
2018-07-30T02:18:46.745Z,82.98
2018-07-30T02:19:47.298Z,82.89
2018-07-30T02:20:47.849Z,83.23
2018-07-30T02:21:48.399Z,83.52
2018-07-30T02:22:48.953Z,84.00
2018-07-30T02:23:49.515Z,84.00
2018-07-30T02:24:50.071Z,83.81
2018-07-30T02:25:50.624Z,83.72
2018-07-30T02:26:51.181Z,83.91
2018-07-30T02:27:51.737Z,83.33
2018-07-30T02:28:52.287Z,83.91
2018-07-30T02:29:52.843Z,83.81
2018-07-30T02:30:53.398Z,84.48
2018-07-30T02:31:53.949Z,84.19
2018-07-30T02:32:54.504Z,84.19
2018-07-30T02:33:55.054Z,84.29
2018-07-30T02:34:55.612Z,84.29
2018-07-30T02:35:56.169Z,84.58
2018-07-30T02:36:56.725Z,84.19
2018-07-30T02:37:57.288Z,84.00
2018-07-30T02:38:57.837Z,84.19
2018-07-30T02:39:58.390Z,84.29
2018-07-30T02:40:58.948Z,84.39
2018-07-30T02:41:59.505Z,84.58
2018-07-30T02:43:00.052Z,85.06
2018-07-30T02:44:00.609Z,85.16
2018-07-30T02:45:01.163Z,84.97
2018-07-30T02:46:01.712Z,85.16
2018-07-30T02:47:02.268Z,85.25
2018-07-30T02:48:02.816Z,85.25
2018-07-30T02:49:03.377Z,85.06
2018-07-30T02:50:03.944Z,84.48
2018-07-30T02:51:04.474Z,84.29
2018-07-30T02:52:05.030Z,84.77
2018-07-30T02:53:05.578Z,84.29
2018-07-30T02:54:06.140Z,84.48
2018-07-30T02:55:06.688Z,84.48
2018-07-30T02:56:07.240Z,84.58
2018-07-30T02:57:07.802Z,83.62
2018-07-30T02:58:08.356Z,83.72
2018-07-30T02:59:08.912Z,83.14
2018-07-30T03:00:09.468Z,83.62
2018-07-30T03:01:10.023Z,83.95
2018-07-30T03:02:10.570Z,84.00
2018-07-30T03:03:11.125Z,83.81
2018-07-30T03:04:11.675Z,83.52
2018-07-30T03:05:12.222Z,83.66
2018-07-30T03:06:12.778Z,84.05
2018-07-30T03:07:13.332Z,83.66
2018-07-30T03:08:13.890Z,83.18
2018-07-30T03:09:14.452Z,83.18
2018-07-30T03:10:14.996Z,83.95
2018-07-30T03:11:15.553Z,83.66
2018-07-30T03:12:16.110Z,83.47
2018-07-30T03:13:16.664Z,83.75
2018-07-30T03:14:17.220Z,83.47
2018-07-30T03:15:17.777Z,83.85
2018-07-30T03:16:18.330Z,84.05
2018-07-30T03:17:18.887Z,83.85
2018-07-30T03:18:19.443Z,84.29
2018-07-30T03:19:19.998Z,84.19
2018-07-30T03:20:20.555Z,84.81
2018-07-30T03:21:21.110Z,84.48
2018-07-30T03:22:21.716Z,84.19
2018-07-30T03:23:22.222Z,84.00
2018-07-30T03:24:22.779Z,84.67
2018-07-30T03:25:23.336Z,84.67
2018-07-30T03:26:23.893Z,85.06
2018-07-30T03:27:24.448Z,84.67
2018-07-30T03:28:25.006Z,85.16
2018-07-30T03:29:25.558Z,84.87
2018-07-30T03:30:26.109Z,85.35
2018-07-30T03:31:26.665Z,85.64
2018-07-30T03:32:27.220Z,85.35
2018-07-30T03:33:27.770Z,85.44
2018-07-30T03:34:28.319Z,86.31
2018-07-30T03:35:28.876Z,85.74
2018-07-30T03:36:29.431Z,86.22
2018-07-30T03:37:29.988Z,86.22
2018-07-30T03:38:30.545Z,86.79
2018-07-30T03:39:31.107Z,86.41
2018-07-30T03:40:31.658Z,86.41
2018-07-30T03:41:32.211Z,86.41
2018-07-30T03:42:32.760Z,87.37
2018-07-30T03:43:33.310Z,86.69
2018-07-30T03:44:33.869Z,87.18
2018-07-30T03:45:34.425Z,87.56
2018-07-30T03:46:34.978Z,87.62
2018-07-30T03:47:35.537Z,87.90
2018-07-30T03:48:36.095Z,87.81
2018-07-30T03:49:36.650Z,87.81
2018-07-30T03:50:37.209Z,87.42
2018-07-30T03:51:37.766Z,87.90
2018-07-30T03:52:38.325Z,87.71
2018-07-30T03:53:38.882Z,87.71
2018-07-30T03:54:39.460Z,88.10
2018-07-30T03:55:39.998Z,88.00
2018-07-30T03:56:40.557Z,87.71
2018-07-30T03:57:41.116Z,88.00
2018-07-30T03:58:41.677Z,88.10
2018-07-30T03:59:42.235Z,87.81
2018-07-30T04:00:42.783Z,87.71
2018-07-30T04:01:43.341Z,87.52
2018-07-30T04:02:43.893Z,87.71
2018-07-30T04:03:44.454Z,87.71
2018-07-30T04:04:45.008Z,88.29
2018-07-30T04:05:45.622Z,87.71
2018-07-30T04:06:46.117Z,88.77
2018-07-30T04:07:46.704Z,87.81
2018-07-30T04:08:47.229Z,88.29
2018-07-30T04:09:47.781Z,88.48
2018-07-30T04:10:48.341Z,88.67
2018-07-30T04:11:48.898Z,88.10
2018-07-30T04:12:49.516Z,88.29
2018-07-30T04:13:50.013Z,88.06
2018-07-30T04:14:50.571Z,88.00
2018-07-30T04:15:51.129Z,88.34
2018-07-30T04:16:51.689Z,88.63
2018-07-30T04:17:52.249Z,88.67
2018-07-30T04:18:52.800Z,88.53
2018-07-30T04:19:53.358Z,88.63
2018-07-30T04:20:53.917Z,88.53
2018-07-30T04:21:54.475Z,88.73
2018-07-30T04:22:55.035Z,88.10
2018-07-30T04:23:55.599Z,88.00
2018-07-30T04:24:56.154Z,88.10
2018-07-30T04:25:56.713Z,88.10
2018-07-30T04:26:57.267Z,87.81
2018-07-30T04:27:57.831Z,88.19
2018-07-30T04:28:58.378Z,88.19
2018-07-30T04:29:58.938Z,87.90
2018-07-30T04:30:59.492Z,88.29
2018-07-30T04:32:00.055Z,88.96
2018-07-30T04:33:00.620Z,88.63
2018-07-30T04:34:01.180Z,89.21
2018-07-30T04:35:01.739Z,89.30
2018-07-30T04:36:02.296Z,89.40
2018-07-30T04:37:02.855Z,89.78
2018-07-30T04:38:03.412Z,89.78
2018-07-30T04:39:03.975Z,90.36
2018-07-30T04:40:04.536Z,89.78
2018-07-30T04:41:05.100Z,89.69
2018-07-30T04:42:05.658Z,89.30
2018-07-30T04:43:06.218Z,89.40
2018-07-30T04:44:06.780Z,89.78
2018-07-30T04:45:07.336Z,89.59
2018-07-30T04:46:07.900Z,89.11
2018-07-30T04:47:08.458Z,89.21
2018-07-30T04:48:09.010Z,89.35
2018-07-30T04:49:09.577Z,89.73
2018-07-30T04:50:10.151Z,89.97
2018-07-30T04:51:10.681Z,88.71
2018-07-30T04:52:11.243Z,86.82
2018-07-30T04:53:11.806Z,85.09
2018-07-30T04:54:12.371Z,84.12
2018-07-30T04:55:12.934Z,83.61
2018-07-30T04:56:13.495Z,83.80
2018-07-30T04:57:14.050Z,83.89
2018-07-30T04:58:14.612Z,84.47
2018-07-30T04:59:15.178Z,84.32
2018-07-30T05:00:15.742Z,84.75
2018-07-30T05:01:16.305Z,83.83
2018-07-30T05:02:16.870Z,83.39
2018-07-30T05:03:17.436Z,80.86
2018-07-30T05:04:18.002Z,78.77
2018-07-30T05:05:18.567Z,77.01
2018-07-30T05:06:19.129Z,75.79
2018-07-30T05:07:19.689Z,73.31
2018-07-30T05:08:20.257Z,72.18
2018-07-30T05:09:20.826Z,70.96
2018-07-30T05:10:21.393Z,70.80
2018-07-30T05:11:21.984Z,70.03
2018-07-30T05:12:22.533Z,70.12
2018-07-30T05:13:23.094Z,69.93
2018-07-30T05:14:23.656Z,69.83
2018-07-30T05:15:24.220Z,69.93
2018-07-30T05:16:24.790Z,68.89
2018-07-30T05:17:25.361Z,68.25
2018-07-30T05:18:25.935Z,66.82
2018-07-30T05:19:26.532Z,66.56
2018-07-30T05:20:27.064Z,65.23
2018-07-30T05:21:27.656Z,65.01
2018-07-30T05:22:28.194Z,64.13
2018-07-30T05:23:28.760Z,62.80
2018-07-30T05:24:29.332Z,61.89
2018-07-30T05:25:29.957Z,60.62
2018-07-30T05:26:30.471Z,60.65
2018-07-30T05:27:31.036Z,59.51
2018-07-30T05:28:31.612Z,58.56
2018-07-30T05:29:32.183Z,58.11
2018-07-30T05:30:32.759Z,57.42
2018-07-30T05:31:33.356Z,56.29
2018-07-30T05:32:33.900Z,57.99
2018-07-30T05:33:34.477Z,58.94
2018-07-30T05:34:35.045Z,60.92
2018-07-30T05:35:35.616Z,60.89
2018-07-30T05:36:36.188Z,61.61
2018-07-30T05:37:36.758Z,62.77
2018-07-30T05:38:37.328Z,64.01
2018-07-30T05:39:37.898Z,64.17
2018-07-30T05:40:38.469Z,64.36
2018-07-30T05:41:39.034Z,63.95
2018-07-30T05:42:39.621Z,65.66
2018-07-30T05:43:40.176Z,66.14
2018-07-30T05:44:40.743Z,67.02
2018-07-30T05:45:41.313Z,67.76
2018-07-30T05:46:41.884Z,68.44
2018-07-30T05:47:42.452Z,68.34
2018-07-30T05:48:43.020Z,69.08
2018-07-30T05:49:43.593Z,68.99
2018-07-30T05:50:44.159Z,70.15
2018-07-30T05:51:44.725Z,70.79
2018-07-30T05:52:45.293Z,71.28
2018-07-30T05:53:45.861Z,72.15
2018-07-30T05:54:46.432Z,72.83
2018-07-30T05:55:47.000Z,72.98
2018-07-30T05:56:47.580Z,72.98
2018-07-30T05:57:48.134Z,73.08
2018-07-30T05:58:48.694Z,72.89
2018-07-30T05:59:49.335Z,73.18
2018-07-30T06:00:49.823Z,73.57
2018-07-30T06:01:50.384Z,73.18
2018-07-30T06:02:50.955Z,72.98
2018-07-30T06:03:51.520Z,73.08
2018-07-30T06:04:52.085Z,73.27
2018-07-30T06:05:52.653Z,73.47
2018-07-30T06:06:53.213Z,73.85
2018-07-30T06:07:53.779Z,73.37
2018-07-30T06:08:54.348Z,73.02
2018-07-30T06:09:54.911Z,73.02
2018-07-30T06:10:55.475Z,73.31
2018-07-30T06:11:56.047Z,72.44
2018-07-30T06:12:56.609Z,72.05
2018-07-30T06:13:57.178Z,72.05
2018-07-30T06:14:57.744Z,72.05
2018-07-30T06:15:58.312Z,72.15
2018-07-30T06:16:58.873Z,72.34
2018-07-30T06:17:59.434Z,72.47
2018-07-30T06:19:00.005Z,72.86
2018-07-30T06:20:00.569Z,72.67
2018-07-30T06:21:01.216Z,72.47
2018-07-30T06:22:01.697Z,71.50
2018-07-30T06:23:02.269Z,71.70
2018-07-30T06:24:02.834Z,71.83
2018-07-30T06:25:03.396Z,70.76
2018-07-30T06:26:03.961Z,70.12
2018-07-30T06:27:04.533Z,70.12
2018-07-30T06:28:05.104Z,69.18
2018-07-30T06:29:05.669Z,69.28
2018-07-30T06:30:06.237Z,68.89
2018-07-30T06:31:06.807Z,68.73
2018-07-30T06:32:07.377Z,68.35
2018-07-30T06:33:07.938Z,68.44
2018-07-30T06:34:08.507Z,69.12
2018-07-30T06:35:09.083Z,68.35
2018-07-30T06:36:09.651Z,68.05
2018-07-30T06:37:10.217Z,67.21
2018-07-30T06:38:10.784Z,67.02
2018-07-30T06:39:11.354Z,66.44
2018-07-30T06:40:11.929Z,66.34
2018-07-30T06:41:12.509Z,65.89
2018-07-30T06:42:13.068Z,66.08
2018-07-30T06:43:13.640Z,64.04
2018-07-30T06:44:14.209Z,64.33
2018-07-30T06:45:14.772Z,63.87
2018-07-30T06:46:15.341Z,62.90
2018-07-30T06:47:15.914Z,62.35
2018-07-30T06:48:16.477Z,62.45
2018-07-30T06:49:17.044Z,63.71
2018-07-30T06:50:17.609Z,63.84
2018-07-30T06:51:18.179Z,61.70
2018-07-30T06:52:18.752Z,60.63
2018-07-30T06:53:19.367Z,60.14
2018-07-30T06:54:19.881Z,61.70
2018-07-30T06:55:20.452Z,62.22
2018-07-30T06:56:21.022Z,58.97
2018-07-30T06:57:21.593Z,59.66
2018-07-30T06:58:22.163Z,59.33
2018-07-30T06:59:22.728Z,60.60
2018-07-30T07:00:23.299Z,60.60
2018-07-30T07:01:23.863Z,60.05
2018-07-30T07:02:24.436Z,59.36
2018-07-30T07:03:25.007Z,59.56
2018-07-30T07:04:25.580Z,59.75
2018-07-30T07:05:26.151Z,58.81
2018-07-30T07:06:26.722Z,59.17
2018-07-30T07:07:27.293Z,60.24
2018-07-30T07:08:27.864Z,61.21
2018-07-30T07:09:28.427Z,60.46
2018-07-30T07:10:28.999Z,57.93
2018-07-30T07:11:29.570Z,59.10
2018-07-30T07:12:30.148Z,58.51
2018-07-30T07:13:30.721Z,57.76
2018-07-30T07:14:31.296Z,57.93
2018-07-30T07:15:31.864Z,57.67
2018-07-30T07:16:32.504Z,57.67
2018-07-30T07:17:33.005Z,57.84
2018-07-30T07:18:33.574Z,57.74
2018-07-30T07:19:34.140Z,57.76
2018-07-30T07:20:34.720Z,58.25
2018-07-30T07:21:35.296Z,57.54
2018-07-30T07:22:35.842Z,59.30
2018-07-30T07:23:36.413Z,58.81
2018-07-30T07:24:36.988Z,58.29
2018-07-30T07:25:37.557Z,58.97
2018-07-30T07:26:38.130Z,59.46
2018-07-30T07:27:38.700Z,59.46
2018-07-30T07:28:39.270Z,58.87
2018-07-30T07:29:39.843Z,58.29
2018-07-30T07:30:40.414Z,58.91
2018-07-30T07:31:40.984Z,58.74
2018-07-30T07:32:41.555Z,58.15
2018-07-30T07:33:42.122Z,58.09
2018-07-30T07:34:42.693Z,56.56
2018-07-30T07:35:43.257Z,56.48
2018-07-30T07:36:43.831Z,56.20
2018-07-30T07:37:44.401Z,55.71
2018-07-30T07:38:44.975Z,55.51
2018-07-30T07:39:45.538Z,55.51
2018-07-30T07:40:46.107Z,55.24
2018-07-30T07:41:46.677Z,55.34
2018-07-30T07:42:47.245Z,55.54
2018-07-30T07:43:47.810Z,56.41
2018-07-30T07:44:48.400Z,55.24
2018-07-30T07:45:48.940Z,54.83
2018-07-30T07:46:49.513Z,55.22
2018-07-30T07:47:50.143Z,55.12
2018-07-30T07:48:50.645Z,54.93
2018-07-30T07:49:51.218Z,54.95
2018-07-30T07:50:51.906Z,55.27
2018-07-30T07:51:52.363Z,54.22
2018-07-30T07:52:52.939Z,53.66
2018-07-30T07:53:53.510Z,53.00
2018-07-30T07:54:54.086Z,52.51
2018-07-30T07:55:54.658Z,52.81
2018-07-30T07:56:55.236Z,52.69
2018-07-30T07:57:55.810Z,53.88
2018-07-30T07:58:56.383Z,52.44
2018-07-30T07:59:56.950Z,51.95
2018-07-30T08:00:57.527Z,51.10
2018-07-30T08:01:58.101Z,50.88
2018-07-30T08:02:58.673Z,52.12
2018-07-30T08:03:59.269Z,52.03
2018-07-30T08:04:59.811Z,52.22
2018-07-30T08:06:00.384Z,51.66
2018-07-30T08:07:00.953Z,51.76
2018-07-30T08:08:01.525Z,50.90
2018-07-30T08:09:02.092Z,51.07
2018-07-30T08:10:02.671Z,50.78
2018-07-30T08:11:03.281Z,51.07
2018-07-30T08:12:03.810Z,51.22
2018-07-30T08:13:04.385Z,50.29
2018-07-30T08:14:04.961Z,49.02
2018-07-30T08:15:05.537Z,48.74
2018-07-30T08:16:06.110Z,48.47
2018-07-30T08:17:06.687Z,48.21
2018-07-30T08:18:07.263Z,47.42
2018-07-30T08:19:07.833Z,47.56
2018-07-30T08:20:08.409Z,46.41
2018-07-30T08:21:08.977Z,46.13
2018-07-30T08:22:09.592Z,45.94
2018-07-30T08:23:10.133Z,45.47
2018-07-30T08:24:10.714Z,45.19
2018-07-30T08:25:11.285Z,45.21
2018-07-30T08:26:11.860Z,44.58
2018-07-30T08:27:12.430Z,44.88
2018-07-30T08:28:13.007Z,45.07
2018-07-30T08:29:13.722Z,43.79
2018-07-30T08:30:14.158Z,43.99
2018-07-30T08:31:14.734Z,44.29
2018-07-30T08:32:15.313Z,44.17
2018-07-30T08:33:15.890Z,44.66
2018-07-30T08:34:16.463Z,44.07
2018-07-30T08:35:17.038Z,44.26
2018-07-30T08:36:17.616Z,44.07
2018-07-30T08:37:18.192Z,44.17
2018-07-30T08:38:18.763Z,43.99
2018-07-30T08:39:19.344Z,43.71
2018-07-30T08:40:19.919Z,43.32
2018-07-30T08:41:20.497Z,43.71
2018-07-30T08:42:21.099Z,43.91
2018-07-30T08:43:21.651Z,44.13
2018-07-30T08:44:22.231Z,43.38
2018-07-30T08:45:22.807Z,42.52
2018-07-30T08:46:23.386Z,42.13
2018-07-30T08:47:23.960Z,41.71
2018-07-30T08:48:24.547Z,42.38
2018-07-30T08:49:25.178Z,43.05
2018-07-30T08:50:25.757Z,42.73
2018-07-30T08:51:26.341Z,43.62
2018-07-30T08:52:26.926Z,43.71
2018-07-30T08:53:27.513Z,43.32
2018-07-30T08:54:28.099Z,43.30
2018-07-30T08:55:28.707Z,43.42
2018-07-30T08:56:29.366Z,43.05
2018-07-30T08:57:29.877Z,42.54
2018-07-30T08:58:30.483Z,42.81
2018-07-30T08:59:31.072Z,43.62
2018-07-30T09:00:31.658Z,42.97
2018-07-30T09:01:32.265Z,42.47
2018-07-30T09:02:32.857Z,42.54
2018-07-30T09:03:33.458Z,42.61
2018-07-30T09:04:34.063Z,42.95
2018-07-30T09:05:34.655Z,42.76
2018-07-30T09:06:35.237Z,42.73
2018-07-30T09:07:35.828Z,42.65
2018-07-30T09:08:36.410Z,42.61
2018-07-30T09:09:36.995Z,42.59
2018-07-30T09:10:37.578Z,43.85
2018-07-30T09:11:38.163Z,43.68
2018-07-30T09:12:38.823Z,43.83
2018-07-30T09:13:39.338Z,44.02
2018-07-30T09:14:39.927Z,44.02
2018-07-30T09:15:40.530Z,44.54
2018-07-30T09:16:41.116Z,43.95
2018-07-30T09:17:41.725Z,44.15
2018-07-30T09:18:42.310Z,44.07
2018-07-30T09:19:42.897Z,44.17
2018-07-30T09:20:43.485Z,43.10
2018-07-30T09:21:44.071Z,43.48
2018-07-30T09:22:44.657Z,44.15
2018-07-30T09:23:45.244Z,44.15
2018-07-30T09:24:45.831Z,44.15
2018-07-30T09:25:46.418Z,44.42
2018-07-30T09:26:47.014Z,44.62
2018-07-30T09:27:47.612Z,44.34
2018-07-30T09:28:48.198Z,43.95
2018-07-30T09:29:48.784Z,44.17
2018-07-30T09:30:49.391Z,43.97
2018-07-30T09:31:49.975Z,43.50
2018-07-30T09:32:50.613Z,42.79
2018-07-30T09:33:51.151Z,43.20
2018-07-30T09:34:51.747Z,43.20
2018-07-30T09:35:52.333Z,43.50
2018-07-30T09:36:52.919Z,43.23
2018-07-30T09:37:53.505Z,42.71
2018-07-30T09:38:54.090Z,43.40
2018-07-30T09:39:54.679Z,43.32
2018-07-30T09:40:55.262Z,42.91
2018-07-30T09:41:55.853Z,42.63
2018-07-30T09:42:56.439Z,42.36
2018-07-30T09:43:57.045Z,41.77
2018-07-30T09:44:57.670Z,42.22
2018-07-30T09:45:58.234Z,42.83
2018-07-30T09:46:58.817Z,42.71
2018-07-30T09:47:59.401Z,42.99
2018-07-30T09:48:59.986Z,43.38
2018-07-30T09:50:00.570Z,43.48
2018-07-30T09:51:01.155Z,43.55
2018-07-30T09:52:01.741Z,43.75
2018-07-30T09:53:02.326Z,43.75
2018-07-30T09:54:02.912Z,43.85
2018-07-30T09:55:03.496Z,43.55
2018-07-30T09:56:04.137Z,43.87
2018-07-30T09:57:04.664Z,43.57
2018-07-30T09:58:05.278Z,44.07
2018-07-30T09:59:05.856Z,44.07
2018-07-30T10:00:06.441Z,44.26
2018-07-30T10:01:07.027Z,44.07
2018-07-30T10:02:07.613Z,43.89
2018-07-30T10:03:08.201Z,43.48
2018-07-30T10:04:08.782Z,43.52
2018-07-30T10:05:09.381Z,42.93
2018-07-30T10:06:09.978Z,42.71
2018-07-30T10:07:10.551Z,43.03
2018-07-30T10:08:11.136Z,42.26
2018-07-30T10:09:11.719Z,42.44
2018-07-30T10:10:12.303Z,43.03
2018-07-30T10:11:12.889Z,42.44
2018-07-30T10:12:13.473Z,42.73
2018-07-30T10:13:14.058Z,42.46
2018-07-30T10:14:14.664Z,42.07
2018-07-30T10:15:15.248Z,42.07
2018-07-30T10:16:15.835Z,42.16
2018-07-30T10:17:16.419Z,42.04
2018-07-30T10:18:17.039Z,42.04
2018-07-30T10:19:17.589Z,42.28
2018-07-30T10:20:18.177Z,42.08
2018-07-30T10:21:18.760Z,41.99
2018-07-30T10:22:19.347Z,41.78
2018-07-30T10:23:19.932Z,41.12
2018-07-30T10:24:20.515Z,41.89
2018-07-30T10:25:21.100Z,41.59
2018-07-30T10:26:21.708Z,41.78
2018-07-30T10:27:22.315Z,41.08
2018-07-30T10:28:22.900Z,41.59
2018-07-30T10:29:23.487Z,41.17
2018-07-30T10:30:24.106Z,41.77
2018-07-30T10:31:24.691Z,41.78
2018-07-30T10:32:25.276Z,41.49
2018-07-30T10:33:25.860Z,41.30
2018-07-30T10:34:26.458Z,41.94
2018-07-30T10:35:27.035Z,42.14
2018-07-30T10:36:27.631Z,42.24
2018-07-30T10:37:28.274Z,41.85
2018-07-30T10:38:28.859Z,41.94
2018-07-30T10:39:29.444Z,42.07
2018-07-30T10:40:30.051Z,42.28
2018-07-30T10:41:30.636Z,41.20
2018-07-30T10:42:31.264Z,41.22
2018-07-30T10:43:31.809Z,40.35
2018-07-30T10:44:32.429Z,40.15
2018-07-30T10:45:33.049Z,40.82
2018-07-30T10:46:33.661Z,40.92
2018-07-30T10:47:34.248Z,40.94
2018-07-30T10:48:34.834Z,40.35
2018-07-30T10:49:35.507Z,40.72
2018-07-30T10:50:36.123Z,40.03
2018-07-30T10:51:36.709Z,40.03
2018-07-30T10:52:37.293Z,40.13
2018-07-30T10:53:37.876Z,40.82
2018-07-30T10:54:38.465Z,40.61
2018-07-30T10:55:39.060Z,41.69
2018-07-30T10:56:39.639Z,40.90
2018-07-30T10:57:40.337Z,40.80
2018-07-30T10:58:40.934Z,40.90
2018-07-30T10:59:41.526Z,39.95
2018-07-30T11:00:42.126Z,40.03
2018-07-30T11:01:42.710Z,40.43
2018-07-30T11:02:43.361Z,40.05
2018-07-30T11:03:43.943Z,39.68
2018-07-30T11:04:44.528Z,39.22
2018-07-30T11:05:45.114Z,39.26
2018-07-30T11:06:45.697Z,38.19
2018-07-30T11:07:46.341Z,38.07
2018-07-30T11:08:46.927Z,38.39
2018-07-30T11:09:47.569Z,37.87
2018-07-30T11:10:48.118Z,38.29
2018-07-30T11:11:48.698Z,38.01
2018-07-30T11:12:49.315Z,38.32
2018-07-30T11:13:49.900Z,37.91
2018-07-30T11:14:50.516Z,37.30
2018-07-30T11:15:51.106Z,37.32
2018-07-30T11:16:51.715Z,37.32
2018-07-30T11:17:52.353Z,37.24
2018-07-30T11:18:52.980Z,36.76
2018-07-30T11:19:53.568Z,36.94
2018-07-30T11:20:54.155Z,37.51
2018-07-30T11:21:54.741Z,37.87
2018-07-30T11:22:55.328Z,38.27
2018-07-30T11:23:55.915Z,38.06
2018-07-30T11:24:56.506Z,38.07
2018-07-30T11:25:57.094Z,37.89
2018-07-30T11:26:57.722Z,37.32
2018-07-30T11:27:58.405Z,37.15
2018-07-30T11:28:58.894Z,36.76
2018-07-30T11:29:59.481Z,36.28
2018-07-30T11:31:00.069Z,35.90
2018-07-30T11:32:00.664Z,35.71
2018-07-30T11:33:01.283Z,36.66
2018-07-30T11:34:01.869Z,36.84
2018-07-30T11:35:02.461Z,37.41
2018-07-30T11:36:03.049Z,37.99
2018-07-30T11:37:03.636Z,38.21
2018-07-30T11:38:04.222Z,37.34
2018-07-30T11:39:04.832Z,37.41
2018-07-30T11:40:05.463Z,37.30
2018-07-30T11:41:06.087Z,37.87
2018-07-30T11:42:06.711Z,38.04
2018-07-30T11:43:07.300Z,39.11
2018-07-30T11:44:07.887Z,39.42
2018-07-30T11:45:08.487Z,39.43
2018-07-30T11:46:09.096Z,38.84
2018-07-30T11:47:09.685Z,38.76
2018-07-30T11:48:10.281Z,37.98
2018-07-30T11:49:10.891Z,37.99
2018-07-30T11:50:11.563Z,37.12
2018-07-30T11:51:12.176Z,36.56
2018-07-30T11:52:12.771Z,36.38
2018-07-30T11:53:13.358Z,36.38
2018-07-30T11:54:13.972Z,36.20
2018-07-30T11:55:14.556Z,36.22
2018-07-30T11:56:15.144Z,35.72
2018-07-30T11:57:15.754Z,36.22
2018-07-30T11:58:16.341Z,35.90
2018-07-30T11:59:16.942Z,36.10
2018-07-30T12:00:17.527Z,36.08
2018-07-30T12:01:18.136Z,36.56
2018-07-30T12:02:18.698Z,36.74
2018-07-30T12:03:19.284Z,36.86
2018-07-30T12:04:19.870Z,36.28
2018-07-30T12:05:20.458Z,35.88
2018-07-30T12:06:21.044Z,35.49
2018-07-30T12:07:21.631Z,35.01
2018-07-30T12:08:22.216Z,35.60
2018-07-30T12:09:22.805Z,35.58
2018-07-30T12:10:23.393Z,35.29
2018-07-30T12:11:23.999Z,35.88
2018-07-30T12:12:24.633Z,35.78
2018-07-30T12:13:25.298Z,35.24
2018-07-30T12:14:25.875Z,34.66
2018-07-30T12:15:26.486Z,34.56
2018-07-30T12:16:27.079Z,35.24
2018-07-30T12:17:27.664Z,34.74
2018-07-30T12:18:28.274Z,34.74
2018-07-30T12:19:28.874Z,34.92
2018-07-30T12:20:29.464Z,34.73
2018-07-30T12:21:30.049Z,34.92
2018-07-30T12:22:30.634Z,35.49
2018-07-30T12:23:31.222Z,35.98
2018-07-30T12:24:31.804Z,35.86
2018-07-30T12:25:32.390Z,36.18
2018-07-30T12:26:32.976Z,35.78
2018-07-30T12:27:33.562Z,35.80
2018-07-30T12:28:34.170Z,34.61
2018-07-30T12:29:34.758Z,34.31
2018-07-30T12:30:35.368Z,34.34
2018-07-30T12:31:35.935Z,34.36
2018-07-30T12:32:36.511Z,34.25
2018-07-30T12:33:37.107Z,34.27
2018-07-30T12:34:37.683Z,34.34
2018-07-30T12:35:38.270Z,34.25
2018-07-30T12:36:38.857Z,34.55
2018-07-30T12:37:39.440Z,34.33
2018-07-30T12:38:40.025Z,34.68
2018-07-30T12:39:40.609Z,36.03
2018-07-30T12:40:41.196Z,36.10
2018-07-30T12:41:41.780Z,36.79
2018-07-30T12:42:42.366Z,36.59
2018-07-30T12:43:42.951Z,36.77
2018-07-30T12:44:43.537Z,36.49
2018-07-30T12:45:44.122Z,36.39
2018-07-30T12:46:44.709Z,36.31
2018-07-30T12:47:45.296Z,35.57
2018-07-30T12:48:45.913Z,35.67
2018-07-30T12:49:46.490Z,35.19
2018-07-30T12:50:47.085Z,34.91
2018-07-30T12:51:47.684Z,34.81
2018-07-30T12:52:48.291Z,34.61
2018-07-30T12:53:48.903Z,34.84
2018-07-30T12:54:49.488Z,34.22
2018-07-30T12:55:50.075Z,35.01
2018-07-30T12:56:50.745Z,35.19
2018-07-30T12:57:51.292Z,34.81
2018-07-30T12:58:51.874Z,35.19
2018-07-30T12:59:52.460Z,35.19